sensor_id;sensor_type;location;lat;lon;timestamp;temperature;humidity
11764;DHT22;5939;56.522;14.950;2023-04-03T00:00:23;4.10;99.90
11764;DHT22;5939;56.522;14.950;2023-04-03T00:02:49;4.20;99.90
11764;DHT22;5939;56.522;14.950;2023-04-03T00:05:14;4.20;99.90
11764;DHT22;5939;56.522;14.950;2023-04-03T00:07:40;4.10;99.90
11764;DHT22;5939;56.522;14.950;2023-04-03T00:10:06;4.10;99.90
11764;DHT22;5939;56.522;14.950;2023-04-03T00:12:32;4.10;99.90
11764;DHT22;5939;56.522;14.950;2023-04-03T00:14:58;4.10;99.90
11764;DHT22;5939;56.522;14.950;2023-04-03T00:17:24;4.10;99.90
11764;DHT22;5939;56.522;14.950;2023-04-03T00:19:49;4.10;99.90
11764;DHT22;5939;56.522;14.950;2023-04-03T00:22:15;4.00;99.90
11764;DHT22;5939;56.522;14.950;2023-04-03T00:24:41;4.00;99.90
11764;DHT22;5939;56.522;14.950;2023-04-03T00:27:07;4.00;99.90
11764;DHT22;5939;56.522;14.950;2023-04-03T00:29:32;4.00;99.90
11764;DHT22;5939;56.522;14.950;2023-04-03T00:31:58;4.00;99.90
11764;DHT22;5939;56.522;14.950;2023-04-03T00:34:24;3.90;99.90
11764;DHT22;5939;56.522;14.950;2023-04-03T00:36:49;3.90;99.90
11764;DHT22;5939;56.522;14.950;2023-04-03T00:39:16;3.90;99.90
11764;DHT22;5939;56.522;14.950;2023-04-03T00:41:42;3.90;99.90
11764;DHT22;5939;56.522;14.950;2023-04-03T00:45:22;3.90;99.90
11764;DHT22;5939;56.522;14.950;2023-04-03T00:47:13;3.80;99.90
11764;DHT22;5939;56.522;14.950;2023-04-03T00:49:39;3.80;99.90
11764;DHT22;5939;56.522;14.950;2023-04-03T00:52:08;3.80;99.90
11764;DHT22;5939;56.522;14.950;2023-04-03T00:54:36;3.80;99.90
11764;DHT22;5939;56.522;14.950;2023-04-03T00:57:03;3.80;99.90
11764;DHT22;5939;56.522;14.950;2023-04-03T00:59:35;3.80;99.90
11764;DHT22;5939;56.522;14.950;2023-04-03T01:02:01;3.80;99.90
11764;DHT22;5939;56.522;14.950;2023-04-03T01:04:33;3.70;99.90
11764;DHT22;5939;56.522;14.950;2023-04-03T01:07:08;3.70;99.90
11764;DHT22;5939;56.522;14.950;2023-04-03T01:09:35;3.70;99.90
11764;DHT22;5939;56.522;14.950;2023-04-03T01:14:44;3.70;99.90
11764;DHT22;5939;56.522;14.950;2023-04-03T01:25:33;3.60;99.90
11764;DHT22;5939;56.522;14.950;2023-04-03T01:28:02;3.60;99.90
11764;DHT22;5939;56.522;14.950;2023-04-03T01:30:32;3.50;99.90
11764;DHT22;5939;56.522;14.950;2023-04-03T01:32:58;3.50;99.90
11764;DHT22;5939;56.522;14.950;2023-04-03T01:35:24;3.50;99.90
11764;DHT22;5939;56.522;14.950;2023-04-03T01:37:50;3.50;99.90
11764;DHT22;5939;56.522;14.950;2023-04-03T01:40:15;3.50;99.90
11764;DHT22;5939;56.522;14.950;2023-04-03T01:42:41;3.50;99.90
11764;DHT22;5939;56.522;14.950;2023-04-03T01:45:07;3.50;99.90
11764;DHT22;5939;56.522;14.950;2023-04-03T01:47:33;3.50;99.90
11764;DHT22;5939;56.522;14.950;2023-04-03T01:49:58;3.40;99.90
11764;DHT22;5939;56.522;14.950;2023-04-03T01:52:24;3.40;99.90
11764;DHT22;5939;56.522;14.950;2023-04-03T01:54:50;3.40;99.90
11764;DHT22;5939;56.522;14.950;2023-04-03T01:57:16;3.40;99.90
11764;DHT22;5939;56.522;14.950;2023-04-03T01:59:42;3.30;99.90
11764;DHT22;5939;56.522;14.950;2023-04-03T02:02:07;3.30;99.90
11764;DHT22;5939;56.522;14.950;2023-04-03T02:04:33;3.30;99.90
11764;DHT22;5939;56.522;14.950;2023-04-03T02:06:58;3.30;99.90
11764;DHT22;5939;56.522;14.950;2023-04-03T02:09:24;3.30;99.90
11764;DHT22;5939;56.522;14.950;2023-04-03T02:11:51;3.30;99.90
11764;DHT22;5939;56.522;14.950;2023-04-03T02:14:17;3.30;99.90
11764;DHT22;5939;56.522;14.950;2023-04-03T02:16:43;3.20;99.90
11764;DHT22;5939;56.522;14.950;2023-04-03T02:19:08;3.20;99.90
11764;DHT22;5939;56.522;14.950;2023-04-03T02:21:34;3.20;99.90
11764;DHT22;5939;56.522;14.950;2023-04-03T02:24:00;3.20;99.90
11764;DHT22;5939;56.522;14.950;2023-04-03T02:26:26;3.20;99.90
11764;DHT22;5939;56.522;14.950;2023-04-03T02:28:52;3.10;99.90
11764;DHT22;5939;56.522;14.950;2023-04-03T02:31:17;3.10;99.90
11764;DHT22;5939;56.522;14.950;2023-04-03T02:33:43;3.10;99.90
11764;DHT22;5939;56.522;14.950;2023-04-03T02:36:09;3.10;99.90
11764;DHT22;5939;56.522;14.950;2023-04-03T02:38:36;3.10;99.90
11764;DHT22;5939;56.522;14.950;2023-04-03T02:41:06;3.10;99.90
11764;DHT22;5939;56.522;14.950;2023-04-03T02:43:33;3.00;99.90
11764;DHT22;5939;56.522;14.950;2023-04-03T02:45:59;3.00;99.90
11764;DHT22;5939;56.522;14.950;2023-04-03T02:48:25;3.00;99.90
11764;DHT22;5939;56.522;14.950;2023-04-03T02:50:51;3.00;99.90
11764;DHT22;5939;56.522;14.950;2023-04-03T02:53:18;3.00;99.90
11764;DHT22;5939;56.522;14.950;2023-04-03T02:55:44;3.00;99.90
11764;DHT22;5939;56.522;14.950;2023-04-03T02:58:09;2.90;99.90
11764;DHT22;5939;56.522;14.950;2023-04-03T03:00:35;2.90;99.90
11764;DHT22;5939;56.522;14.950;2023-04-03T03:03:01;2.90;99.90
11764;DHT22;5939;56.522;14.950;2023-04-03T03:05:27;2.90;99.90
11764;DHT22;5939;56.522;14.950;2023-04-03T03:07:53;2.90;99.90
11764;DHT22;5939;56.522;14.950;2023-04-03T03:10:19;2.80;99.90
11764;DHT22;5939;56.522;14.950;2023-04-03T03:12:45;2.80;99.90
11764;DHT22;5939;56.522;14.950;2023-04-03T03:15:11;2.80;99.90
11764;DHT22;5939;56.522;14.950;2023-04-03T03:17:37;2.80;99.90
11764;DHT22;5939;56.522;14.950;2023-04-03T03:20:04;2.80;99.90
11764;DHT22;5939;56.522;14.950;2023-04-03T03:22:30;2.70;99.90
11764;DHT22;5939;56.522;14.950;2023-04-03T03:24:56;2.70;99.90
11764;DHT22;5939;56.522;14.950;2023-04-03T03:27:21;2.70;99.90
11764;DHT22;5939;56.522;14.950;2023-04-03T03:29:47;2.70;99.90
11764;DHT22;5939;56.522;14.950;2023-04-03T03:32:13;2.70;99.90
11764;DHT22;5939;56.522;14.950;2023-04-03T03:34:38;2.70;99.90
11764;DHT22;5939;56.522;14.950;2023-04-03T03:37:04;2.70;99.90
11764;DHT22;5939;56.522;14.950;2023-04-03T03:39:30;2.60;99.90
11764;DHT22;5939;56.522;14.950;2023-04-03T03:41:56;2.60;99.90
11764;DHT22;5939;56.522;14.950;2023-04-03T03:44:21;2.60;99.90
11764;DHT22;5939;56.522;14.950;2023-04-03T03:46:47;2.60;99.90
11764;DHT22;5939;56.522;14.950;2023-04-03T03:49:13;2.60;99.90
11764;DHT22;5939;56.522;14.950;2023-04-03T03:51:39;2.50;99.90
11764;DHT22;5939;56.522;14.950;2023-04-03T03:54:05;2.50;99.90
11764;DHT22;5939;56.522;14.950;2023-04-03T03:56:31;2.50;99.90
11764;DHT22;5939;56.522;14.950;2023-04-03T03:58:57;2.50;99.90
11764;DHT22;5939;56.522;14.950;2023-04-03T04:01:23;2.50;99.90
11764;DHT22;5939;56.522;14.950;2023-04-03T04:03:49;2.50;99.90
11764;DHT22;5939;56.522;14.950;2023-04-03T04:06:15;2.40;99.90
11764;DHT22;5939;56.522;14.950;2023-04-03T04:08:41;2.40;99.90
11764;DHT22;5939;56.522;14.950;2023-04-03T04:11:07;2.40;99.90
11764;DHT22;5939;56.522;14.950;2023-04-03T04:13:34;2.40;99.90
11764;DHT22;5939;56.522;14.950;2023-04-03T04:15:59;2.40;99.90
11764;DHT22;5939;56.522;14.950;2023-04-03T04:18:25;2.30;99.90
11764;DHT22;5939;56.522;14.950;2023-04-03T04:20:51;2.40;99.90
11764;DHT22;5939;56.522;14.950;2023-04-03T04:23:17;2.30;99.90
11764;DHT22;5939;56.522;14.950;2023-04-03T04:25:47;2.30;99.90
11764;DHT22;5939;56.522;14.950;2023-04-03T04:28:13;2.30;99.90
11764;DHT22;5939;56.522;14.950;2023-04-03T04:30:39;2.30;99.90
11764;DHT22;5939;56.522;14.950;2023-04-03T04:33:04;2.30;99.90
11764;DHT22;5939;56.522;14.950;2023-04-03T04:35:30;2.20;99.90
11764;DHT22;5939;56.522;14.950;2023-04-03T04:37:56;2.20;99.90
11764;DHT22;5939;56.522;14.950;2023-04-03T04:40:22;2.20;99.90
11764;DHT22;5939;56.522;14.950;2023-04-03T04:42:48;2.20;99.90
11764;DHT22;5939;56.522;14.950;2023-04-03T04:45:13;2.20;99.90
11764;DHT22;5939;56.522;14.950;2023-04-03T04:47:40;2.20;99.90
11764;DHT22;5939;56.522;14.950;2023-04-03T04:50:06;2.20;99.90
11764;DHT22;5939;56.522;14.950;2023-04-03T04:52:32;2.10;99.90
11764;DHT22;5939;56.522;14.950;2023-04-03T04:54:58;2.10;99.90
11764;DHT22;5939;56.522;14.950;2023-04-03T04:57:23;2.10;99.90
11764;DHT22;5939;56.522;14.950;2023-04-03T04:59:49;2.10;99.90
11764;DHT22;5939;56.522;14.950;2023-04-03T05:02:15;2.10;99.90
11764;DHT22;5939;56.522;14.950;2023-04-03T05:04:41;2.00;99.90
11764;DHT22;5939;56.522;14.950;2023-04-03T05:07:06;2.00;99.90
11764;DHT22;5939;56.522;14.950;2023-04-03T05:09:32;2.00;99.90
11764;DHT22;5939;56.522;14.950;2023-04-03T05:11:58;2.00;99.90
11764;DHT22;5939;56.522;14.950;2023-04-03T05:14:23;2.00;99.90
11764;DHT22;5939;56.522;14.950;2023-04-03T05:16:49;2.00;99.90
11764;DHT22;5939;56.522;14.950;2023-04-03T05:19:18;2.00;99.90
11764;DHT22;5939;56.522;14.950;2023-04-03T05:21:44;2.00;99.90
11764;DHT22;5939;56.522;14.950;2023-04-03T05:24:10;2.00;99.90
11764;DHT22;5939;56.522;14.950;2023-04-03T05:26:35;2.00;99.90
11764;DHT22;5939;56.522;14.950;2023-04-03T05:29:01;2.00;99.90
11764;DHT22;5939;56.522;14.950;2023-04-03T05:31:27;2.00;99.90
11764;DHT22;5939;56.522;14.950;2023-04-03T05:33:55;2.00;99.90
11764;DHT22;5939;56.522;14.950;2023-04-03T05:36:21;2.00;99.90
11764;DHT22;5939;56.522;14.950;2023-04-03T05:38:47;2.00;99.90
11764;DHT22;5939;56.522;14.950;2023-04-03T05:41:14;2.00;99.90
11764;DHT22;5939;56.522;14.950;2023-04-03T05:43:39;2.00;99.90
11764;DHT22;5939;56.522;14.950;2023-04-03T05:46:11;2.10;99.90
11764;DHT22;5939;56.522;14.950;2023-04-03T05:48:37;2.10;99.90
11764;DHT22;5939;56.522;14.950;2023-04-03T05:51:03;2.10;99.90
11764;DHT22;5939;56.522;14.950;2023-04-03T05:53:32;2.10;99.90
11764;DHT22;5939;56.522;14.950;2023-04-03T05:55:58;2.10;99.90
11764;DHT22;5939;56.522;14.950;2023-04-03T05:58:24;2.20;99.90
11764;DHT22;5939;56.522;14.950;2023-04-03T06:00:49;2.20;99.90
11764;DHT22;5939;56.522;14.950;2023-04-03T06:03:15;2.20;99.90
11764;DHT22;5939;56.522;14.950;2023-04-03T06:05:42;2.30;99.90
11764;DHT22;5939;56.522;14.950;2023-04-03T06:08:08;2.30;99.90
11764;DHT22;5939;56.522;14.950;2023-04-03T06:10:34;2.40;99.90
11764;DHT22;5939;56.522;14.950;2023-04-03T06:13:01;2.40;99.90
11764;DHT22;5939;56.522;14.950;2023-04-03T06:15:26;2.50;99.90
11764;DHT22;5939;56.522;14.950;2023-04-03T06:17:52;2.50;99.90
11764;DHT22;5939;56.522;14.950;2023-04-03T06:20:18;2.50;99.90
11764;DHT22;5939;56.522;14.950;2023-04-03T06:22:44;2.60;99.90
11764;DHT22;5939;56.522;14.950;2023-04-03T06:25:09;2.70;99.90
11764;DHT22;5939;56.522;14.950;2023-04-03T06:27:35;2.70;99.90
11764;DHT22;5939;56.522;14.950;2023-04-03T06:30:01;2.80;99.90
11764;DHT22;5939;56.522;14.950;2023-04-03T06:32:27;2.90;99.90
11764;DHT22;5939;56.522;14.950;2023-04-03T06:34:53;2.90;99.90
11764;DHT22;5939;56.522;14.950;2023-04-03T06:37:21;3.00;99.90
11764;DHT22;5939;56.522;14.950;2023-04-03T06:39:47;3.10;99.90
11764;DHT22;5939;56.522;14.950;2023-04-03T06:42:13;3.20;99.90
11764;DHT22;5939;56.522;14.950;2023-04-03T06:44:39;3.30;99.90
11764;DHT22;5939;56.522;14.950;2023-04-03T06:47:05;3.30;99.90
11764;DHT22;5939;56.522;14.950;2023-04-03T06:49:31;3.40;99.90
11764;DHT22;5939;56.522;14.950;2023-04-03T06:51:57;3.50;99.90
11764;DHT22;5939;56.522;14.950;2023-04-03T06:54:23;3.60;99.90
11764;DHT22;5939;56.522;14.950;2023-04-03T06:56:49;3.70;99.90
11764;DHT22;5939;56.522;14.950;2023-04-03T06:59:15;3.80;99.90
11764;DHT22;5939;56.522;14.950;2023-04-03T07:01:41;3.90;99.90
11764;DHT22;5939;56.522;14.950;2023-04-03T07:04:07;4.00;99.90
11764;DHT22;5939;56.522;14.950;2023-04-03T07:06:34;4.10;99.90
11764;DHT22;5939;56.522;14.950;2023-04-03T07:09:00;4.20;99.90
11764;DHT22;5939;56.522;14.950;2023-04-03T07:11:26;4.30;99.90
11764;DHT22;5939;56.522;14.950;2023-04-03T07:13:52;4.40;99.90
11764;DHT22;5939;56.522;14.950;2023-04-03T07:16:19;4.40;99.90
11764;DHT22;5939;56.522;14.950;2023-04-03T07:18:45;4.60;99.90
11764;DHT22;5939;56.522;14.950;2023-04-03T07:21:11;4.60;99.90
11764;DHT22;5939;56.522;14.950;2023-04-03T07:23:37;4.70;99.90
11764;DHT22;5939;56.522;14.950;2023-04-03T07:26:03;4.80;99.90
11764;DHT22;5939;56.522;14.950;2023-04-03T07:28:29;4.90;99.90
11764;DHT22;5939;56.522;14.950;2023-04-03T07:31:02;5.00;99.90
11764;DHT22;5939;56.522;14.950;2023-04-03T07:33:28;5.10;99.90
11764;DHT22;5939;56.522;14.950;2023-04-03T07:35:54;5.20;99.90
11764;DHT22;5939;56.522;14.950;2023-04-03T07:38:20;5.30;99.90
11764;DHT22;5939;56.522;14.950;2023-04-03T07:40:47;5.40;99.90
11764;DHT22;5939;56.522;14.950;2023-04-03T07:43:14;5.50;99.90
11764;DHT22;5939;56.522;14.950;2023-04-03T07:45:41;5.60;99.90
11764;DHT22;5939;56.522;14.950;2023-04-03T07:48:07;5.60;99.90
11764;DHT22;5939;56.522;14.950;2023-04-03T07:50:33;5.70;99.90
11764;DHT22;5939;56.522;14.950;2023-04-03T07:52:58;5.80;99.90
11764;DHT22;5939;56.522;14.950;2023-04-03T07:55:25;5.90;99.90
11764;DHT22;5939;56.522;14.950;2023-04-03T07:57:50;6.00;99.90
11764;DHT22;5939;56.522;14.950;2023-04-03T08:00:17;6.00;99.90
11764;DHT22;5939;56.522;14.950;2023-04-03T08:02:43;6.10;99.90
11764;DHT22;5939;56.522;14.950;2023-04-03T08:05:10;6.20;99.90
11764;DHT22;5939;56.522;14.950;2023-04-03T08:07:37;6.30;99.90
11764;DHT22;5939;56.522;14.950;2023-04-03T08:10:03;6.40;99.90
11764;DHT22;5939;56.522;14.950;2023-04-03T08:12:29;6.50;99.90
11764;DHT22;5939;56.522;14.950;2023-04-03T08:14:59;6.60;99.90
11764;DHT22;5939;56.522;14.950;2023-04-03T08:17:25;6.70;99.90
11764;DHT22;5939;56.522;14.950;2023-04-03T08:19:51;6.80;99.90
11764;DHT22;5939;56.522;14.950;2023-04-03T08:22:17;6.90;99.90
11764;DHT22;5939;56.522;14.950;2023-04-03T08:24:42;7.00;99.90
11764;DHT22;5939;56.522;14.950;2023-04-03T08:27:08;7.10;99.90
11764;DHT22;5939;56.522;14.950;2023-04-03T08:29:34;7.20;99.90
11764;DHT22;5939;56.522;14.950;2023-04-03T08:31:59;7.20;99.90
11764;DHT22;5939;56.522;14.950;2023-04-03T08:34:25;7.30;99.90
11764;DHT22;5939;56.522;14.950;2023-04-03T08:36:51;7.50;99.90
11764;DHT22;5939;56.522;14.950;2023-04-03T08:39:17;7.60;99.90
11764;DHT22;5939;56.522;14.950;2023-04-03T08:41:45;7.60;99.90
11764;DHT22;5939;56.522;14.950;2023-04-03T08:44:25;7.70;99.90
11764;DHT22;5939;56.522;14.950;2023-04-03T08:47:28;7.80;99.90
11764;DHT22;5939;56.522;14.950;2023-04-03T08:50:07;7.90;99.90
11764;DHT22;5939;56.522;14.950;2023-04-03T08:52:44;8.10;99.90
11764;DHT22;5939;56.522;14.950;2023-04-03T08:55:49;8.20;99.90
11764;DHT22;5939;56.522;14.950;2023-04-03T09:00:58;8.30;99.90
11764;DHT22;5939;56.522;14.950;2023-04-03T09:03:24;8.40;99.90
11764;DHT22;5939;56.522;14.950;2023-04-03T09:08:26;8.60;99.90
11764;DHT22;5939;56.522;14.950;2023-04-03T09:11:03;8.70;99.90
11764;DHT22;5939;56.522;14.950;2023-04-03T09:19:33;8.90;99.90
11764;DHT22;5939;56.522;14.950;2023-04-03T09:22:21;9.00;99.90
11764;DHT22;5939;56.522;14.950;2023-04-03T09:27:26;9.10;99.90
11764;DHT22;5939;56.522;14.950;2023-04-03T09:29:56;9.20;99.90
11764;DHT22;5939;56.522;14.950;2023-04-03T09:32:28;9.30;99.90
11764;DHT22;5939;56.522;14.950;2023-04-03T09:34:57;9.30;99.90
11764;DHT22;5939;56.522;14.950;2023-04-03T09:37:43;9.40;99.90
11764;DHT22;5939;56.522;14.950;2023-04-03T09:40:38;9.50;99.90
11764;DHT22;5939;56.522;14.950;2023-04-03T09:45:50;9.60;99.90
11764;DHT22;5939;56.522;14.950;2023-04-03T09:53:33;9.70;99.90
11764;DHT22;5939;56.522;14.950;2023-04-03T09:56:02;9.80;99.90
11764;DHT22;5939;56.522;14.950;2023-04-03T09:58:37;9.90;99.90
11764;DHT22;5939;56.522;14.950;2023-04-03T10:01:03;9.90;99.90
11764;DHT22;5939;56.522;14.950;2023-04-03T10:03:35;10.00;99.90
11764;DHT22;5939;56.522;14.950;2023-04-03T10:06:03;10.00;99.90
11764;DHT22;5939;56.522;14.950;2023-04-03T10:08:31;10.10;99.90
11764;DHT22;5939;56.522;14.950;2023-04-03T10:11:17;10.10;99.90
11764;DHT22;5939;56.522;14.950;2023-04-03T10:14:15;10.20;99.90
11764;DHT22;5939;56.522;14.950;2023-04-03T10:16:46;10.30;99.90
11764;DHT22;5939;56.522;14.950;2023-04-03T10:24:53;10.40;99.90
11764;DHT22;5939;56.522;14.950;2023-04-03T10:36:11;10.70;99.90
11764;DHT22;5939;56.522;14.950;2023-04-03T10:39:18;10.70;99.90
11764;DHT22;5939;56.522;14.950;2023-04-03T10:44:52;10.90;99.90
11764;DHT22;5939;56.522;14.950;2023-04-03T10:47:32;10.90;99.90
11764;DHT22;5939;56.522;14.950;2023-04-03T10:50:36;11.00;99.90
11764;DHT22;5939;56.522;14.950;2023-04-03T10:58:58;11.10;99.90
11764;DHT22;5939;56.522;14.950;2023-04-03T11:01:16;11.20;99.90
11764;DHT22;5939;56.522;14.950;2023-04-03T11:03:45;11.20;99.90
11764;DHT22;5939;56.522;14.950;2023-04-03T11:06:15;11.30;99.90
11764;DHT22;5939;56.522;14.950;2023-04-03T11:11:32;11.40;99.90
11764;DHT22;5939;56.522;14.950;2023-04-03T11:14:32;11.40;99.90
11764;DHT22;5939;56.522;14.950;2023-04-03T11:19:52;11.60;99.90
11764;DHT22;5939;56.522;14.950;2023-04-03T11:22:27;11.60;99.90
11764;DHT22;5939;56.522;14.950;2023-04-03T11:27:48;11.70;99.90
11764;DHT22;5939;56.522;14.950;2023-04-03T11:30:23;11.80;99.90
11764;DHT22;5939;56.522;14.950;2023-04-03T11:35:45;11.90;99.90
11764;DHT22;5939;56.522;14.950;2023-04-03T11:38:20;11.90;99.90
11764;DHT22;5939;56.522;14.950;2023-04-03T11:40:49;11.90;99.90
11764;DHT22;5939;56.522;14.950;2023-04-03T11:43:25;11.90;99.90
11764;DHT22;5939;56.522;14.950;2023-04-03T11:46:03;11.90;99.90
11764;DHT22;5939;56.522;14.950;2023-04-03T11:51:02;12.00;99.90
11764;DHT22;5939;56.522;14.950;2023-04-03T11:53:47;12.10;99.90
11764;DHT22;5939;56.522;14.950;2023-04-03T12:02:34;12.20;99.90
11764;DHT22;5939;56.522;14.950;2023-04-03T12:04:36;12.10;99.90
11764;DHT22;5939;56.522;14.950;2023-04-03T12:07:14;12.10;99.90
11764;DHT22;5939;56.522;14.950;2023-04-03T12:12:39;12.00;99.90
11764;DHT22;5939;56.522;14.950;2023-04-03T12:15:26;12.00;99.90
11764;DHT22;5939;56.522;14.950;2023-04-03T12:17:52;11.90;99.90
11764;DHT22;5939;56.522;14.950;2023-04-03T12:26:21;11.80;99.90
11764;DHT22;5939;56.522;14.950;2023-04-03T12:28:48;11.80;99.90
11764;DHT22;5939;56.522;14.950;2023-04-03T12:31:16;11.70;99.90
11764;DHT22;5939;56.522;14.950;2023-04-03T12:34:09;11.70;99.90
11764;DHT22;5939;56.522;14.950;2023-04-03T12:36:48;11.60;99.90
11764;DHT22;5939;56.522;14.950;2023-04-03T12:40:03;11.60;99.90
11764;DHT22;5939;56.522;14.950;2023-04-03T12:45:23;11.40;99.90
11764;DHT22;5939;56.522;14.950;2023-04-03T12:47:52;11.40;99.90
11764;DHT22;5939;56.522;14.950;2023-04-03T12:50:28;11.30;99.90
11764;DHT22;5939;56.522;14.950;2023-04-03T12:53:31;11.30;99.90
11764;DHT22;5939;56.522;14.950;2023-04-03T12:58:46;11.20;99.90
11764;DHT22;5939;56.522;14.950;2023-04-03T13:01:17;11.10;99.90
11764;DHT22;5939;56.522;14.950;2023-04-03T13:03:45;11.10;99.90
11764;DHT22;5939;56.522;14.950;2023-04-03T13:06:45;11.00;99.90
11764;DHT22;5939;56.522;14.950;2023-04-03T13:09:27;10.90;99.90
11764;DHT22;5939;56.522;14.950;2023-04-03T13:12:15;10.90;99.90
11764;DHT22;5939;56.522;14.950;2023-04-03T13:14:50;10.80;99.90
11764;DHT22;5939;56.522;14.950;2023-04-03T13:17:16;10.70;99.90
11764;DHT22;5939;56.522;14.950;2023-04-03T13:19:44;10.60;99.90
11764;DHT22;5939;56.522;14.950;2023-04-03T13:25:00;10.60;99.90
11764;DHT22;5939;56.522;14.950;2023-04-03T13:27:30;10.50;99.90
11764;DHT22;5939;56.522;14.950;2023-04-03T13:29:58;10.40;99.90
11764;DHT22;5939;56.522;14.950;2023-04-03T13:32:27;10.40;99.90
11764;DHT22;5939;56.522;14.950;2023-04-03T13:34:53;10.30;99.90
11764;DHT22;5939;56.522;14.950;2023-04-03T13:37:33;10.30;99.90
11764;DHT22;5939;56.522;14.950;2023-04-03T13:40:01;10.20;99.90
11764;DHT22;5939;56.522;14.950;2023-04-03T13:42:32;10.20;99.90
11764;DHT22;5939;56.522;14.950;2023-04-03T13:45:28;10.10;99.90
11764;DHT22;5939;56.522;14.950;2023-04-03T13:48:17;10.10;99.90
11764;DHT22;5939;56.522;14.950;2023-04-03T13:50:53;10.00;99.90
11764;DHT22;5939;56.522;14.950;2023-04-03T13:53:19;9.90;99.90
11764;DHT22;5939;56.522;14.950;2023-04-03T13:58:31;9.80;99.90
11764;DHT22;5939;56.522;14.950;2023-04-03T14:03:44;9.70;99.90
11764;DHT22;5939;56.522;14.950;2023-04-03T14:06:13;9.70;99.90
11764;DHT22;5939;56.522;14.950;2023-04-03T14:08:39;9.60;99.90
11764;DHT22;5939;56.522;14.950;2023-04-03T14:11:08;9.50;99.90
11764;DHT22;5939;56.522;14.950;2023-04-03T14:13:35;9.50;99.90
11764;DHT22;5939;56.522;14.950;2023-04-03T14:16:01;9.40;99.90
11764;DHT22;5939;56.522;14.950;2023-04-03T14:18:27;9.40;99.90
11764;DHT22;5939;56.522;14.950;2023-04-03T14:20:52;9.30;99.90
11764;DHT22;5939;56.522;14.950;2023-04-03T14:23:18;9.30;99.90
11764;DHT22;5939;56.522;14.950;2023-04-03T14:25:44;9.30;99.90
11764;DHT22;5939;56.522;14.950;2023-04-03T14:28:16;9.30;99.90
11764;DHT22;5939;56.522;14.950;2023-04-03T14:30:42;9.20;99.90
11764;DHT22;5939;56.522;14.950;2023-04-03T14:33:15;9.20;99.90
11764;DHT22;5939;56.522;14.950;2023-04-03T14:35:41;9.10;99.90
11764;DHT22;5939;56.522;14.950;2023-04-03T14:38:28;9.00;99.90
11764;DHT22;5939;56.522;14.950;2023-04-03T14:40:55;9.00;99.90
11764;DHT22;5939;56.522;14.950;2023-04-03T14:43:21;9.00;99.90
11764;DHT22;5939;56.522;14.950;2023-04-03T14:45:48;8.90;99.90
11764;DHT22;5939;56.522;14.950;2023-04-03T14:48:30;8.90;99.90
11764;DHT22;5939;56.522;14.950;2023-04-03T14:50:56;8.80;99.90
11764;DHT22;5939;56.522;14.950;2023-04-03T14:53:22;8.80;99.90
11764;DHT22;5939;56.522;14.950;2023-04-03T14:55:50;8.80;99.90
11764;DHT22;5939;56.522;14.950;2023-04-03T14:58:18;8.70;99.90
11764;DHT22;5939;56.522;14.950;2023-04-03T15:00:44;8.70;99.90
11764;DHT22;5939;56.522;14.950;2023-04-03T15:03:21;8.70;99.90
11764;DHT22;5939;56.522;14.950;2023-04-03T15:05:49;8.60;99.90
11764;DHT22;5939;56.522;14.950;2023-04-03T15:08:25;8.60;99.90
11764;DHT22;5939;56.522;14.950;2023-04-03T15:10:52;8.50;99.90
11764;DHT22;5939;56.522;14.950;2023-04-03T15:13:19;8.50;99.90
11764;DHT22;5939;56.522;14.950;2023-04-03T15:15:45;8.50;99.90
11764;DHT22;5939;56.522;14.950;2023-04-03T15:18:21;8.40;99.90
11764;DHT22;5939;56.522;14.950;2023-04-03T15:20:48;8.40;99.90
11764;DHT22;5939;56.522;14.950;2023-04-03T15:23:15;8.40;99.90
11764;DHT22;5939;56.522;14.950;2023-04-03T15:25:42;8.30;99.90
11764;DHT22;5939;56.522;14.950;2023-04-03T15:28:13;8.30;99.90
11764;DHT22;5939;56.522;14.950;2023-04-03T15:30:40;8.40;99.90
11764;DHT22;5939;56.522;14.950;2023-04-03T15:33:06;8.20;99.90
11764;DHT22;5939;56.522;14.950;2023-04-03T15:35:32;8.20;99.90
11764;DHT22;5939;56.522;14.950;2023-04-03T15:37:57;8.20;99.90
11764;DHT22;5939;56.522;14.950;2023-04-03T15:40:23;8.20;99.90
11764;DHT22;5939;56.522;14.950;2023-04-03T15:42:49;8.10;99.90
11764;DHT22;5939;56.522;14.950;2023-04-03T15:45:14;8.10;99.90
11764;DHT22;5939;56.522;14.950;2023-04-03T15:47:41;8.10;99.90
11764;DHT22;5939;56.522;14.950;2023-04-03T15:50:07;8.00;99.90
11764;DHT22;5939;56.522;14.950;2023-04-03T15:52:34;8.00;99.90
11764;DHT22;5939;56.522;14.950;2023-04-03T15:55:00;8.00;99.90
11764;DHT22;5939;56.522;14.950;2023-04-03T15:57:26;7.90;99.90
11764;DHT22;5939;56.522;14.950;2023-04-03T15:59:52;7.90;99.90
11764;DHT22;5939;56.522;14.950;2023-04-03T16:02:18;7.90;99.90
11764;DHT22;5939;56.522;14.950;2023-04-03T16:04:44;7.80;99.90
11764;DHT22;5939;56.522;14.950;2023-04-03T16:07:10;7.80;99.90
11764;DHT22;5939;56.522;14.950;2023-04-03T16:09:36;7.80;99.90
11764;DHT22;5939;56.522;14.950;2023-04-03T16:12:02;7.80;99.90
11764;DHT22;5939;56.522;14.950;2023-04-03T16:14:28;7.70;99.90
11764;DHT22;5939;56.522;14.950;2023-04-03T16:16:56;7.70;99.90
11764;DHT22;5939;56.522;14.950;2023-04-03T16:19:22;7.60;99.90
11764;DHT22;5939;56.522;14.950;2023-04-03T16:21:48;7.60;99.90
11764;DHT22;5939;56.522;14.950;2023-04-03T16:24:14;7.60;99.90
11764;DHT22;5939;56.522;14.950;2023-04-03T16:26:39;7.60;99.90
11764;DHT22;5939;56.522;14.950;2023-04-03T16:29:05;7.50;99.90
11764;DHT22;5939;56.522;14.950;2023-04-03T16:31:32;7.60;99.90
11764;DHT22;5939;56.522;14.950;2023-04-03T16:34:00;7.50;99.90
11764;DHT22;5939;56.522;14.950;2023-04-03T16:36:25;7.60;99.90
11764;DHT22;5939;56.522;14.950;2023-04-03T16:38:51;7.40;99.90
11764;DHT22;5939;56.522;14.950;2023-04-03T16:41:17;7.50;99.90
11764;DHT22;5939;56.522;14.950;2023-04-03T16:43:43;7.40;99.90
11764;DHT22;5939;56.522;14.950;2023-04-03T16:46:08;7.40;99.90
11764;DHT22;5939;56.522;14.950;2023-04-03T16:48:34;7.30;99.90
11764;DHT22;5939;56.522;14.950;2023-04-03T16:50:59;7.30;99.90
11764;DHT22;5939;56.522;14.950;2023-04-03T16:53:26;7.30;99.90
11764;DHT22;5939;56.522;14.950;2023-04-03T16:55:52;7.30;99.90
11764;DHT22;5939;56.522;14.950;2023-04-03T16:58:18;7.20;99.90
11764;DHT22;5939;56.522;14.950;2023-04-03T17:00:44;7.20;99.90
11764;DHT22;5939;56.522;14.950;2023-04-03T17:03:12;7.30;99.90
11764;DHT22;5939;56.522;14.950;2023-04-03T17:05:38;7.10;99.90
11764;DHT22;5939;56.522;14.950;2023-04-03T17:08:04;7.20;99.90
11764;DHT22;5939;56.522;14.950;2023-04-03T17:10:29;7.10;99.90
11764;DHT22;5939;56.522;14.950;2023-04-03T17:12:56;7.20;99.90
11764;DHT22;5939;56.522;14.950;2023-04-03T17:15:22;7.00;99.90
11764;DHT22;5939;56.522;14.950;2023-04-03T17:17:49;7.00;99.90
11764;DHT22;5939;56.522;14.950;2023-04-03T17:20:16;7.10;99.90
11764;DHT22;5939;56.522;14.950;2023-04-03T17:22:42;7.00;99.90
11764;DHT22;5939;56.522;14.950;2023-04-03T17:25:08;6.90;99.90
11764;DHT22;5939;56.522;14.950;2023-04-03T17:27:34;6.90;99.90
11764;DHT22;5939;56.522;14.950;2023-04-03T17:29:59;6.90;99.90